createdAt,value
2019-03-19T00:00:14.594Z,10.40
2019-03-19T00:01:14.552Z,11.30
2019-03-19T00:02:14.513Z,8.00
2019-03-19T00:03:14.467Z,7.50
2019-03-19T00:04:14.441Z,9.50
2019-03-19T00:05:14.385Z,8.00
2019-03-19T00:06:14.341Z,7.70
2019-03-19T00:07:14.298Z,9.50
2019-03-19T00:08:14.255Z,8.90
2019-03-19T00:09:14.213Z,9.00
2019-03-19T00:10:14.164Z,9.60
2019-03-19T00:11:14.128Z,9.00
2019-03-19T00:12:14.079Z,10.80
2019-03-19T00:13:14.036Z,9.00
2019-03-19T00:14:13.998Z,8.20
2019-03-19T00:15:22.622Z,9.20
2019-03-19T00:17:26.564Z,9.10
2019-03-19T00:18:26.493Z,12.60
2019-03-19T00:19:26.504Z,10.20
2019-03-19T00:20:26.404Z,10.40
2019-03-19T00:21:26.356Z,8.60
2019-03-19T00:22:26.315Z,9.10
2019-03-19T00:23:26.271Z,10.60
2019-03-19T00:24:26.227Z,9.60
2019-03-19T00:25:30.215Z,8.20
2019-03-19T00:26:26.141Z,11.40
2019-03-19T00:27:26.100Z,9.10
2019-03-19T00:28:26.064Z,7.80
2019-03-19T00:29:26.014Z,11.20
2019-03-19T00:30:25.972Z,12.30
2019-03-19T00:31:25.927Z,8.50
2019-03-19T00:32:25.884Z,10.90
2019-03-19T00:33:25.841Z,8.30
2019-03-19T00:34:25.800Z,7.90
2019-03-19T00:35:25.761Z,10.50
2019-03-19T00:36:25.712Z,7.90
2019-03-19T00:37:25.669Z,11.60
2019-03-19T00:38:25.625Z,8.10
2019-03-19T00:39:25.602Z,9.60
2019-03-19T00:40:25.544Z,10.50
2019-03-19T00:41:25.496Z,7.80
2019-03-19T00:42:25.453Z,9.60
2019-03-19T00:43:25.410Z,9.00
2019-03-19T00:44:25.368Z,8.50
2019-03-19T00:45:25.329Z,9.40
2019-03-19T00:46:25.281Z,8.00
2019-03-19T00:47:25.238Z,8.40
2019-03-19T00:48:25.197Z,8.10
2019-03-19T00:49:25.153Z,11.10
2019-03-19T00:50:25.117Z,11.70
2019-03-19T00:51:25.065Z,6.50
2019-03-19T00:52:25.028Z,5.90
2019-03-19T00:53:24.979Z,6.90
2019-03-19T00:54:24.936Z,11.80
2019-03-19T00:55:24.898Z,10.70
2019-03-19T00:56:24.850Z,13.30
2019-03-19T00:57:24.806Z,10.60
2019-03-19T00:58:24.764Z,7.40
2019-03-19T00:59:24.721Z,8.40
2019-03-19T01:00:24.678Z,9.20
2019-03-19T01:01:24.636Z,9.00
2019-03-19T01:02:24.592Z,9.70
2019-03-19T01:03:24.552Z,10.10
2019-03-19T01:04:24.508Z,8.00
2019-03-19T01:05:24.463Z,6.80
2019-03-19T01:06:24.420Z,9.60
2019-03-19T01:07:24.375Z,9.00
2019-03-19T01:08:24.333Z,7.10
2019-03-19T01:09:24.289Z,11.80
2019-03-19T01:10:24.246Z,10.90
2019-03-19T01:11:24.204Z,9.90
2019-03-19T01:12:24.160Z,7.60
2019-03-19T01:13:24.116Z,9.10
2019-03-19T01:14:24.098Z,8.50
2019-03-19T01:15:24.035Z,8.90
2019-03-19T01:16:23.993Z,9.70
2019-03-19T01:17:23.943Z,9.10
2019-03-19T01:18:23.902Z,10.00
2019-03-19T01:19:23.861Z,8.40
2019-03-19T01:20:23.821Z,9.70
2019-03-19T01:21:23.777Z,10.50
2019-03-19T01:22:23.730Z,11.00
2019-03-19T01:23:23.686Z,7.80
2019-03-19T01:24:23.640Z,7.70
2019-03-19T01:25:23.596Z,11.70
2019-03-19T01:26:23.556Z,8.90
2019-03-19T01:27:23.514Z,8.90
2019-03-19T01:28:23.481Z,8.10
2019-03-19T01:29:23.431Z,9.70
2019-03-19T01:30:23.385Z,9.00
2019-03-19T01:31:23.339Z,12.60
2019-03-19T01:32:23.294Z,9.20
2019-03-19T01:33:23.256Z,10.80
2019-03-19T01:34:23.210Z,12.40
2019-03-19T01:35:23.169Z,9.30
2019-03-19T01:36:23.121Z,10.20
2019-03-19T01:37:23.076Z,9.10
2019-03-19T01:38:23.041Z,6.50
2019-03-19T01:39:22.994Z,8.90
2019-03-19T01:40:22.952Z,11.50
2019-03-19T01:41:22.909Z,9.00
2019-03-19T01:42:22.863Z,8.60
2019-03-19T01:43:22.818Z,15.30
2019-03-19T01:44:22.774Z,10.70
2019-03-19T01:45:22.729Z,8.90
2019-03-19T01:46:22.688Z,13.20
2019-03-19T01:47:22.647Z,12.60
2019-03-19T01:48:22.605Z,8.10
2019-03-19T01:49:22.580Z,14.40
2019-03-19T01:50:22.569Z,12.70
2019-03-19T01:51:22.474Z,11.20
2019-03-19T01:52:22.434Z,7.20
2019-03-19T01:53:22.388Z,10.00
2019-03-19T01:54:22.344Z,10.00
2019-03-19T01:55:22.297Z,12.30
2019-03-19T01:56:22.253Z,8.90
2019-03-19T01:57:22.209Z,10.70
2019-03-19T01:58:22.167Z,7.20
2019-03-19T01:59:22.126Z,8.40
2019-03-19T02:00:22.085Z,12.30
2019-03-19T02:01:22.040Z,11.10
2019-03-19T02:02:21.995Z,10.10
2019-03-19T02:03:21.951Z,10.80
2019-03-19T02:04:21.906Z,8.20
2019-03-19T02:05:21.867Z,10.00
2019-03-19T02:06:21.822Z,8.90
2019-03-19T02:07:21.777Z,11.70
2019-03-19T02:08:21.731Z,10.30
2019-03-19T02:09:21.687Z,9.90
2019-03-19T02:10:21.647Z,9.90
2019-03-19T02:11:21.604Z,9.30
2019-03-19T02:12:21.564Z,9.60
2019-03-19T02:13:21.518Z,10.80
2019-03-19T02:14:21.474Z,11.70
2019-03-19T02:15:21.434Z,13.20
2019-03-19T02:16:21.386Z,11.10
2019-03-19T02:17:21.344Z,14.20
2019-03-19T02:18:21.298Z,11.30
2019-03-19T02:19:21.257Z,13.10
2019-03-19T02:20:21.217Z,11.10
2019-03-19T02:21:21.165Z,9.30
2019-03-19T02:22:21.124Z,10.50
2019-03-19T02:23:21.084Z,9.10
2019-03-19T02:24:21.046Z,8.60
2019-03-19T02:25:20.997Z,9.70
2019-03-19T02:26:20.953Z,10.90
2019-03-19T02:27:20.908Z,10.60
2019-03-19T02:28:20.864Z,11.10
2019-03-19T02:29:20.818Z,15.00
2019-03-19T02:30:20.777Z,12.90
2019-03-19T02:31:20.745Z,10.10
2019-03-19T02:32:20.697Z,12.40
2019-03-19T02:33:20.666Z,10.70
2019-03-19T02:34:20.613Z,10.30
2019-03-19T02:35:20.572Z,10.80
2019-03-19T02:36:20.516Z,7.10
2019-03-19T02:37:20.476Z,11.80
2019-03-19T02:38:20.434Z,12.40
2019-03-19T02:39:20.385Z,10.10
2019-03-19T02:40:20.343Z,10.50
2019-03-19T02:41:20.299Z,9.20
2019-03-19T02:42:20.255Z,13.30
2019-03-19T02:43:22.707Z,9.00
2019-03-19T02:44:20.171Z,12.80
2019-03-19T02:45:20.127Z,10.30
2019-03-19T02:46:20.085Z,12.20
2019-03-19T02:47:20.037Z,10.60
2019-03-19T02:48:19.994Z,11.20
2019-03-19T02:49:19.951Z,13.60
2019-03-19T02:50:19.905Z,12.90
2019-03-19T02:51:19.867Z,13.20
2019-03-19T02:52:19.843Z,12.20
2019-03-19T02:53:19.774Z,14.30
2019-03-19T02:54:19.732Z,12.30
2019-03-19T02:55:19.690Z,11.20
2019-03-19T02:56:31.957Z,10.50
2019-03-19T02:57:19.608Z,13.40
2019-03-19T02:58:19.560Z,10.40
2019-03-19T02:59:19.514Z,12.50
2019-03-19T03:00:19.474Z,11.90
2019-03-19T03:01:19.436Z,13.10
2019-03-19T03:02:19.381Z,10.40
2019-03-19T03:03:19.352Z,9.90
2019-03-19T03:04:19.299Z,13.10
2019-03-19T03:05:19.256Z,11.80
2019-03-19T03:06:19.216Z,12.90
2019-03-19T03:07:19.163Z,10.50
2019-03-19T03:08:19.127Z,11.70
2019-03-19T03:09:19.080Z,11.70
2019-03-19T03:10:19.038Z,13.20
2019-03-19T03:11:18.989Z,10.60
2019-03-19T03:12:18.948Z,9.50
2019-03-19T03:13:18.921Z,12.00
2019-03-19T03:14:18.860Z,13.40
2019-03-19T03:15:18.850Z,11.30
2019-03-19T03:16:18.784Z,9.90
2019-03-19T03:17:18.734Z,14.90
2019-03-19T03:18:18.693Z,9.90
2019-03-19T03:19:18.642Z,10.20
2019-03-19T03:20:18.599Z,11.60
2019-03-19T03:21:18.555Z,14.20
2019-03-19T03:22:18.508Z,11.80
2019-03-19T03:23:18.471Z,12.50
2019-03-19T03:24:18.429Z,11.40
2019-03-19T03:25:18.380Z,12.10
2019-03-19T03:26:18.334Z,17.50
2019-03-19T03:27:18.296Z,10.50
2019-03-19T03:28:18.256Z,10.70
2019-03-19T03:29:18.208Z,15.00
2019-03-19T03:30:18.166Z,11.20
2019-03-19T03:44:00.336Z,16.60
2019-03-19T03:45:00.462Z,12.40
2019-03-19T03:46:00.217Z,10.00
2019-03-19T03:47:00.190Z,13.50
2019-03-19T03:48:00.122Z,13.00
2019-03-19T03:49:00.074Z,19.60
2019-03-19T03:50:00.040Z,11.00
2019-03-19T03:50:59.980Z,13.00
2019-03-19T03:51:59.940Z,11.10
2019-03-19T03:52:59.894Z,17.00
2019-03-19T03:53:59.872Z,15.40
2019-03-19T03:54:59.803Z,13.60
2019-03-19T03:55:59.758Z,10.60
2019-03-19T03:57:02.619Z,12.00
2019-03-19T03:57:59.676Z,11.30
2019-03-19T03:59:00.908Z,11.90
2019-03-19T03:59:59.584Z,14.20
2019-03-19T04:00:59.537Z,17.00
2019-03-19T04:01:59.491Z,14.00
2019-03-19T04:02:59.446Z,11.00
2019-03-19T04:03:59.403Z,17.60
2019-03-19T04:04:59.361Z,10.80
2019-03-19T04:05:59.320Z,14.90
2019-03-19T04:06:59.279Z,14.30
2019-03-19T04:07:59.228Z,13.20
2019-03-19T04:08:59.182Z,16.60
2019-03-19T04:09:59.137Z,13.10
2019-03-19T04:10:59.099Z,11.60
2019-03-19T04:11:59.056Z,13.70
2019-03-19T04:12:59.007Z,10.30
2019-03-19T04:13:58.963Z,13.40
2019-03-19T04:14:58.920Z,15.50
2019-03-19T04:15:58.878Z,13.10
2019-03-19T04:16:58.835Z,13.00
2019-03-19T04:17:58.792Z,13.80
2019-03-19T04:18:58.746Z,13.30
2019-03-19T04:19:58.702Z,11.90
2019-03-19T04:20:58.669Z,12.20
2019-03-19T04:21:58.612Z,12.50
2019-03-19T04:22:58.567Z,12.20
2019-03-19T04:23:58.526Z,13.30
2019-03-19T04:24:58.484Z,19.30
2019-03-19T04:25:58.440Z,11.60
2019-03-19T04:26:58.390Z,13.90
2019-03-19T04:27:58.350Z,16.90
2019-03-19T04:28:58.307Z,14.50
2019-03-19T04:29:58.268Z,11.00
2019-03-19T04:30:58.222Z,15.10
2019-03-19T04:31:58.173Z,14.00
2019-03-19T04:32:58.128Z,10.40
2019-03-19T04:33:58.083Z,13.70
2019-03-19T04:34:58.041Z,16.50
2019-03-19T04:35:57.999Z,14.80
2019-03-19T04:36:57.957Z,13.20
2019-03-19T04:37:57.921Z,16.40
2019-03-19T04:38:57.870Z,13.40
2019-03-19T04:39:57.825Z,15.30
2019-03-19T04:40:57.779Z,16.00
2019-03-19T04:41:57.733Z,13.60
2019-03-19T04:42:57.697Z,15.60
2019-03-19T04:43:57.649Z,13.60
2019-03-19T04:44:57.605Z,13.60
2019-03-19T04:45:57.556Z,10.40
2019-03-19T04:46:57.512Z,12.80
2019-03-19T04:47:57.470Z,16.40
2019-03-19T04:48:57.428Z,13.10
2019-03-19T04:49:57.388Z,11.50
2019-03-19T04:50:57.342Z,12.50
2019-03-19T04:51:57.297Z,13.10
2019-03-19T04:52:57.252Z,12.60
2019-03-19T04:53:57.209Z,13.50
2019-03-19T04:54:57.161Z,14.60
2019-03-19T04:55:57.119Z,14.00
2019-03-19T04:56:57.078Z,12.70
2019-03-19T04:57:57.035Z,15.50
2019-03-19T04:58:56.988Z,16.00
2019-03-19T04:59:58.971Z,14.40
2019-03-19T05:00:56.903Z,15.20
2019-03-19T05:01:56.859Z,14.10
2019-03-19T05:02:56.816Z,14.70
2019-03-19T05:03:56.770Z,13.30
2019-03-19T05:04:56.723Z,10.20
2019-03-19T05:05:56.679Z,15.40
2019-03-19T05:06:56.637Z,15.30
2019-03-19T05:07:56.592Z,13.70
2019-03-19T05:08:56.551Z,14.60
2019-03-19T05:09:56.509Z,11.80
2019-03-19T05:10:56.464Z,17.50
2019-03-19T05:11:56.419Z,12.20
2019-03-19T05:12:56.373Z,15.40
2019-03-19T05:13:56.328Z,14.40
2019-03-19T05:14:56.293Z,13.10
2019-03-19T05:15:56.244Z,13.90
2019-03-19T05:16:56.198Z,20.00
2019-03-19T05:17:56.152Z,14.10
2019-03-19T05:18:56.108Z,11.00
2019-03-19T05:19:56.067Z,11.50
2019-03-19T05:20:56.024Z,15.80
2019-03-19T05:21:55.987Z,15.00
2019-03-19T05:22:55.937Z,14.20
2019-03-19T05:23:55.890Z,12.20
2019-03-19T05:24:55.850Z,12.70
2019-03-19T05:25:55.799Z,14.20
2019-03-19T05:26:55.755Z,10.90
2019-03-19T05:27:55.713Z,15.40
2019-03-19T05:28:55.672Z,15.70
2019-03-19T05:29:55.629Z,16.30
2019-03-19T05:30:55.580Z,14.10
2019-03-19T05:31:55.538Z,12.80
2019-03-19T05:32:55.501Z,16.20
2019-03-19T05:33:55.453Z,15.00
2019-03-19T05:34:55.409Z,14.20
2019-03-19T05:35:55.363Z,10.40
2019-03-19T05:36:55.318Z,13.00
2019-03-19T05:37:55.273Z,13.90
2019-03-19T05:38:55.228Z,15.30
2019-03-19T05:39:55.188Z,11.20
2019-03-19T05:40:55.143Z,18.30
2019-03-19T05:41:55.101Z,13.40
2019-03-19T05:42:55.063Z,12.20
2019-03-19T05:43:55.012Z,12.40
2019-03-19T05:44:54.966Z,15.50
2019-03-19T05:45:54.920Z,15.50
2019-03-19T05:46:54.880Z,13.80
2019-03-19T05:47:54.837Z,14.50
2019-03-19T05:48:54.789Z,15.30
2019-03-19T05:49:54.743Z,16.40
2019-03-19T05:50:54.698Z,13.40
2019-03-19T05:51:54.669Z,11.20
2019-03-19T05:52:54.615Z,15.40
2019-03-19T05:53:54.573Z,13.30
2019-03-19T05:54:54.534Z,14.40
2019-03-19T05:55:54.482Z,17.50
2019-03-19T05:56:54.437Z,12.70
2019-03-19T05:57:54.391Z,12.70
2019-03-19T05:58:54.347Z,12.40
2019-03-19T05:59:54.305Z,14.30
2019-03-19T06:00:54.263Z,20.70
2019-03-19T06:01:54.222Z,19.10
2019-03-19T06:02:54.172Z,22.40
2019-03-19T06:03:54.135Z,12.80
2019-03-19T06:04:54.086Z,13.40
2019-03-19T06:05:54.047Z,15.30
2019-03-19T06:06:54.002Z,11.60
2019-03-19T06:07:53.956Z,12.10
2019-03-19T06:08:53.911Z,12.90
2019-03-19T06:09:53.863Z,15.10
2019-03-19T06:10:53.820Z,13.50
2019-03-19T06:11:53.777Z,10.40
2019-03-19T06:12:53.738Z,12.20
2019-03-19T06:13:53.696Z,10.90
2019-03-19T06:14:55.409Z,12.90
2019-03-19T06:15:53.606Z,11.10
2019-03-19T06:16:53.560Z,14.00
2019-03-19T06:17:53.517Z,14.70
2019-03-19T06:18:53.475Z,14.80
2019-03-19T06:19:53.428Z,14.40
2019-03-19T06:20:53.386Z,16.10
2019-03-19T06:21:53.337Z,13.60
2019-03-19T06:22:53.293Z,14.30
2019-03-19T06:23:53.252Z,11.10
2019-03-19T06:24:53.210Z,11.50
2019-03-19T06:25:53.168Z,11.00
2019-03-19T06:26:53.130Z,14.60
2019-03-19T06:28:00.504Z,11.40
2019-03-19T06:28:53.031Z,11.40
2019-03-19T06:29:52.987Z,11.30
2019-03-19T06:30:52.945Z,14.60
2019-03-19T06:31:52.900Z,13.20
2019-03-19T06:32:52.860Z,15.30
2019-03-19T06:33:52.820Z,13.60
2019-03-19T06:34:52.770Z,11.30
2019-03-19T06:35:52.726Z,13.10
2019-03-19T06:36:52.684Z,11.50
2019-03-19T06:37:52.642Z,13.80
2019-03-19T06:38:52.598Z,12.90
2019-03-19T06:39:52.554Z,15.10
2019-03-19T06:40:52.509Z,17.00
2019-03-19T06:41:52.464Z,14.10
2019-03-19T06:42:52.423Z,13.90
2019-03-19T06:43:52.377Z,13.50
2019-03-19T06:44:52.335Z,10.80
2019-03-19T06:45:52.293Z,13.60
2019-03-19T06:46:52.249Z,13.00
2019-03-19T06:47:52.214Z,12.50
2019-03-19T06:48:52.159Z,15.00
2019-03-19T06:49:52.114Z,14.20
2019-03-19T06:50:52.075Z,15.10
2019-03-19T06:51:52.030Z,13.10
2019-03-19T06:52:51.987Z,13.40
2019-03-19T06:53:51.941Z,11.70
2019-03-19T06:54:51.897Z,14.80
2019-03-19T06:55:51.854Z,10.60
2019-03-19T06:56:51.813Z,13.80
2019-03-19T06:57:51.773Z,12.20
2019-03-19T06:58:51.729Z,16.40
2019-03-19T06:59:51.683Z,10.80
2019-03-19T07:00:51.637Z,10.20
2019-03-19T07:01:51.591Z,15.00
2019-03-19T07:02:51.548Z,10.40
2019-03-19T07:03:51.507Z,14.10
2019-03-19T07:04:51.467Z,16.00
2019-03-19T07:05:51.425Z,13.60
2019-03-19T07:06:51.375Z,11.90
2019-03-19T07:07:51.333Z,9.30
2019-03-19T07:08:51.292Z,12.80
2019-03-19T07:09:51.252Z,11.00
2019-03-19T07:10:51.206Z,11.00
2019-03-19T07:11:51.162Z,10.50
2019-03-19T07:12:51.118Z,10.80
2019-03-19T07:13:51.071Z,10.20
2019-03-19T07:14:51.028Z,10.00
2019-03-19T07:15:50.987Z,13.10
2019-03-19T07:16:50.945Z,13.00
2019-03-19T07:17:50.908Z,11.90
2019-03-19T07:18:50.865Z,13.30
2019-03-19T07:19:50.815Z,12.00
2019-03-19T07:20:50.772Z,11.40
2019-03-19T07:21:50.726Z,11.60
2019-03-19T07:22:50.689Z,13.40
2019-03-19T07:23:50.652Z,12.80
2019-03-19T07:24:50.600Z,12.20
2019-03-19T07:25:50.553Z,11.50
2019-03-19T07:26:50.510Z,12.60
2019-03-19T07:27:50.470Z,11.50
2019-03-19T07:28:50.428Z,11.50
2019-03-19T07:29:50.389Z,11.40
2019-03-19T07:30:50.342Z,13.70
2019-03-19T07:31:50.300Z,15.80
2019-03-19T07:32:50.251Z,16.00
2019-03-19T07:33:50.212Z,8.90
2019-03-19T07:34:50.168Z,12.30
2019-03-19T07:35:50.124Z,13.40
2019-03-19T07:36:50.087Z,13.30
2019-03-19T07:37:50.044Z,14.60
2019-03-19T07:38:49.995Z,16.70
2019-03-19T07:39:49.952Z,10.40
2019-03-19T07:40:49.915Z,10.20
2019-03-19T07:41:49.872Z,16.30
2019-03-19T07:42:49.828Z,8.90
2019-03-19T07:43:49.798Z,10.10
2019-03-19T07:44:49.739Z,13.00
2019-03-19T07:45:49.699Z,13.90
2019-03-19T07:46:49.655Z,8.60
2019-03-19T07:47:49.609Z,10.50
2019-03-19T07:48:49.578Z,10.20
2019-03-19T07:49:49.529Z,11.30
2019-03-19T07:50:49.485Z,10.10
2019-03-19T07:51:49.446Z,8.40
2019-03-19T07:52:49.399Z,12.80
2019-03-19T07:53:49.358Z,8.00
2019-03-19T07:54:49.314Z,10.80
2019-03-19T07:55:49.274Z,9.60
2019-03-19T07:56:49.226Z,11.60
2019-03-19T07:57:49.186Z,10.20
2019-03-19T07:58:49.143Z,15.10
2019-03-19T07:59:49.100Z,9.70
2019-03-19T08:00:49.063Z,8.40
2019-03-19T08:01:49.017Z,10.40
2019-03-19T08:02:48.977Z,7.80
2019-03-19T08:03:48.937Z,10.00
2019-03-19T08:04:48.886Z,9.60
2019-03-19T08:05:48.847Z,9.30
2019-03-19T08:06:48.810Z,8.00
2019-03-19T08:07:48.760Z,9.50
2019-03-19T08:08:48.724Z,10.80
2019-03-19T08:09:48.679Z,9.70
2019-03-19T08:10:48.636Z,6.90
2019-03-19T08:11:48.591Z,15.60
2019-03-19T08:12:48.558Z,10.00
2019-03-19T08:13:48.510Z,5.60
2019-03-19T08:14:48.473Z,10.50
2019-03-19T08:15:48.427Z,6.00
2019-03-19T08:16:48.383Z,8.40
2019-03-19T08:17:48.339Z,7.30
2019-03-19T08:18:48.302Z,8.90
2019-03-19T08:19:48.253Z,8.50
2019-03-19T08:20:48.216Z,5.60
2019-03-19T08:21:48.174Z,8.40
2019-03-19T08:22:48.129Z,4.00
2019-03-19T08:23:48.099Z,6.40
2019-03-19T08:24:48.045Z,7.20
2019-03-19T08:25:48.005Z,6.50
2019-03-19T08:26:49.196Z,6.60
2019-03-19T08:27:47.924Z,5.90
2019-03-19T08:28:55.043Z,5.70
2019-03-19T08:29:47.835Z,4.80
2019-03-19T08:30:47.793Z,5.90
2019-03-19T08:31:47.749Z,7.30
2019-03-19T08:32:47.713Z,5.70
2019-03-19T08:33:47.670Z,6.40
2019-03-19T08:34:47.626Z,4.90
2019-03-19T08:35:47.626Z,4.50
2019-03-19T08:36:47.547Z,8.10
2019-03-19T08:37:47.506Z,5.40
2019-03-19T08:38:47.458Z,4.60
2019-03-19T08:39:47.413Z,5.30
2019-03-19T08:40:47.378Z,10.60
2019-03-19T08:41:47.336Z,8.90
2019-03-19T08:42:47.293Z,12.10
2019-03-19T08:43:47.247Z,10.20
2019-03-19T08:44:47.210Z,7.90
2019-03-19T08:45:47.167Z,4.70
2019-03-19T08:46:47.124Z,8.80
2019-03-19T08:47:47.084Z,6.70
2019-03-19T08:48:47.037Z,6.70
2019-03-19T08:49:46.997Z,6.10
2019-03-19T08:50:46.955Z,5.10
2019-03-19T08:51:46.911Z,7.60
2019-03-19T08:52:46.876Z,7.40
2019-03-19T08:53:46.833Z,7.30
2019-03-19T08:54:46.792Z,7.20
2019-03-19T08:55:46.753Z,8.80
2019-03-19T08:56:46.703Z,5.40
2019-03-19T08:57:46.667Z,6.50
2019-03-19T08:58:46.622Z,5.60
2019-03-19T08:59:46.584Z,6.70
2019-03-19T09:00:46.536Z,4.90
2019-03-19T09:01:47.429Z,4.10
2019-03-19T09:02:46.456Z,5.90
2019-03-19T09:03:46.415Z,6.90
2019-03-19T09:04:46.376Z,5.80
2019-03-19T09:05:46.333Z,8.70
2019-03-19T09:06:46.290Z,5.90
2019-03-19T09:07:46.256Z,5.00
2019-03-19T09:08:46.206Z,5.50
2019-03-19T09:09:46.164Z,4.10
2019-03-19T09:10:46.122Z,7.80
2019-03-19T09:11:46.078Z,7.90
2019-03-19T09:12:48.194Z,5.60
2019-03-19T09:13:46.001Z,8.70
2019-03-19T09:14:45.956Z,9.50
2019-03-19T09:15:45.914Z,7.80
2019-03-19T09:16:45.878Z,9.60
2019-03-19T09:17:45.835Z,11.00
2019-03-19T09:18:45.846Z,8.70
2019-03-19T09:19:45.753Z,7.40
2019-03-19T09:20:45.705Z,8.30
2019-03-19T09:21:45.666Z,6.90
2019-03-19T09:22:45.632Z,8.10
2019-03-19T09:23:45.582Z,8.30
2019-03-19T09:24:45.546Z,6.00
2019-03-19T09:25:45.508Z,6.50
2019-03-19T09:26:45.461Z,6.20
2019-03-19T09:27:45.421Z,8.30
2019-03-19T09:28:45.412Z,6.20
2019-03-19T09:29:45.335Z,6.60
2019-03-19T09:30:45.296Z,6.90
2019-03-19T09:31:45.256Z,7.50
2019-03-19T09:32:45.210Z,7.10
2019-03-19T09:33:45.171Z,4.80
2019-03-19T09:34:45.127Z,6.50
2019-03-19T09:35:45.086Z,5.90
2019-03-19T09:36:45.083Z,7.60
2019-03-19T09:37:57.235Z,7.20
2019-03-19T09:38:44.965Z,5.60
2019-03-19T09:39:44.928Z,7.10
2019-03-19T09:40:44.878Z,7.80
2019-03-19T09:41:44.838Z,5.10
2019-03-19T09:42:44.801Z,5.90
2019-03-19T09:43:44.755Z,9.10
2019-03-19T09:57:28.865Z,4.90
2019-03-19T09:58:28.808Z,6.70
2019-03-19T09:59:28.761Z,4.00
2019-03-19T10:00:28.711Z,7.80
2019-03-19T10:01:28.667Z,6.70
2019-03-19T10:02:28.627Z,10.90
2019-03-19T10:03:28.583Z,10.50
2019-03-19T10:04:28.544Z,6.10
2019-03-19T10:05:28.494Z,6.20
2019-03-19T10:06:28.451Z,11.10
2019-03-19T10:07:28.408Z,5.80
2019-03-19T10:08:28.364Z,5.10
2019-03-19T10:09:28.323Z,6.70
2019-03-19T10:10:28.322Z,6.60
2019-03-19T10:11:28.242Z,5.70
2019-03-19T10:12:28.202Z,9.20
2019-03-19T10:13:28.157Z,7.20
2019-03-19T10:14:28.113Z,7.20
2019-03-19T10:15:28.072Z,6.00
2019-03-19T10:16:28.034Z,7.10
2019-03-19T10:17:27.992Z,6.40
2019-03-19T10:18:27.947Z,9.20
2019-03-19T10:19:27.911Z,8.50
2019-03-19T10:20:27.863Z,10.20
2019-03-19T10:21:27.829Z,6.40
2019-03-19T10:22:27.782Z,6.00
2019-03-19T10:23:27.744Z,6.90
2019-03-19T10:24:27.702Z,6.20
2019-03-19T10:25:27.660Z,7.80
2019-03-19T10:26:27.615Z,7.00
2019-03-19T10:27:27.574Z,5.30
2019-03-19T10:28:27.532Z,6.80
2019-03-19T10:29:37.565Z,6.70
2019-03-19T10:30:27.456Z,6.30
2019-03-19T10:31:27.424Z,5.40
2019-03-19T10:32:27.366Z,7.30
2019-03-19T10:33:27.326Z,7.20
2019-03-19T10:34:27.288Z,6.10
2019-03-19T10:35:27.249Z,6.20
2019-03-19T10:36:27.214Z,7.80
2019-03-19T10:37:27.163Z,7.00
2019-03-19T10:38:27.121Z,7.20
2019-03-19T10:39:27.077Z,7.90
2019-03-19T10:40:27.037Z,5.10
2019-03-19T10:41:26.997Z,4.40
2019-03-19T10:42:26.958Z,8.60
2019-03-19T10:43:26.920Z,7.00
2019-03-19T10:44:26.879Z,5.40
2019-03-19T10:45:26.835Z,7.00
2019-03-19T10:46:26.795Z,6.50
2019-03-19T10:47:26.749Z,7.00
2019-03-19T10:48:26.716Z,5.90
2019-03-19T10:49:26.671Z,8.50
2019-03-19T10:50:26.629Z,7.50
2019-03-19T10:51:26.587Z,5.40
2019-03-19T10:52:26.547Z,7.70
2019-03-19T10:53:26.506Z,5.90
2019-03-19T10:54:26.467Z,6.70
2019-03-19T10:55:26.428Z,5.20
2019-03-19T10:56:26.389Z,6.70
2019-03-19T10:57:26.347Z,6.80
2019-03-19T10:58:26.303Z,6.30
2019-03-19T10:59:26.261Z,6.70
2019-03-19T11:00:26.221Z,6.70
2019-03-19T11:01:26.179Z,6.80
2019-03-19T11:02:26.145Z,5.50
2019-03-19T11:03:26.102Z,7.50
2019-03-19T11:04:26.057Z,9.30
2019-03-19T11:05:26.018Z,7.00
2019-03-19T11:06:25.979Z,7.80
2019-03-19T11:07:25.941Z,8.20
2019-03-19T11:08:25.906Z,5.80
2019-03-19T11:09:25.859Z,7.40
2019-03-19T11:10:25.815Z,7.30
2019-03-19T11:11:25.772Z,7.30
2019-03-19T11:12:25.734Z,7.10
2019-03-19T11:13:25.693Z,4.80
2019-03-19T11:14:25.651Z,7.50
2019-03-19T11:15:25.615Z,6.50
2019-03-19T11:16:25.575Z,4.60
2019-03-19T11:17:25.532Z,5.20
2019-03-19T11:18:25.488Z,8.90
2019-03-19T11:19:25.447Z,7.80
2019-03-19T11:20:25.414Z,7.50
2019-03-19T11:21:25.369Z,5.60
2019-03-19T11:22:25.329Z,7.30
2019-03-19T11:23:25.284Z,8.90
2019-03-19T11:24:25.245Z,8.30
2019-03-19T11:25:25.204Z,8.10
2019-03-19T11:26:25.167Z,7.40
2019-03-19T11:27:25.128Z,5.30
2019-03-19T11:28:25.088Z,7.50
2019-03-19T11:29:25.047Z,6.60
2019-03-19T11:30:25.003Z,6.20
2019-03-19T11:31:24.961Z,6.30
2019-03-19T11:32:24.921Z,7.00
2019-03-19T11:33:24.880Z,4.20
2019-03-19T11:34:24.845Z,7.60
2019-03-19T11:35:24.805Z,6.10
2019-03-19T11:36:24.759Z,4.90
2019-03-19T11:37:24.723Z,5.60
2019-03-19T11:38:24.680Z,7.00
2019-03-19T11:39:24.642Z,5.50
2019-03-19T11:40:25.889Z,7.60
2019-03-19T11:41:24.559Z,8.30
2019-03-19T11:42:24.516Z,7.80
2019-03-19T11:43:24.476Z,6.70
2019-03-19T11:44:24.438Z,5.30
2019-03-19T11:45:24.393Z,7.40
2019-03-19T11:46:24.359Z,5.60
2019-03-19T11:47:24.317Z,6.00
2019-03-19T11:48:24.277Z,6.70
2019-03-19T11:49:24.237Z,4.40
2019-03-19T11:50:24.197Z,10.00
2019-03-19T11:51:24.155Z,4.70
2019-03-19T11:52:24.116Z,4.60
2019-03-19T11:53:24.079Z,5.60
2019-03-19T11:54:24.031Z,7.80
2019-03-19T11:55:23.997Z,6.10
2019-03-19T11:56:23.953Z,7.20
2019-03-19T11:57:23.909Z,6.70
2019-03-19T11:58:23.875Z,5.70
2019-03-19T11:59:23.837Z,4.90
2019-03-19T12:00:23.794Z,3.80
2019-03-19T12:01:23.755Z,5.40
2019-03-19T12:02:26.190Z,7.60
2019-03-19T12:03:23.673Z,7.00
2019-03-19T12:04:23.632Z,8.10
2019-03-19T12:05:23.589Z,4.40
2019-03-19T12:06:23.555Z,3.80
2019-03-19T12:07:23.514Z,7.00
2019-03-19T12:08:23.472Z,4.00
2019-03-19T12:09:23.428Z,9.70
2019-03-19T12:10:23.398Z,6.10
2019-03-19T12:11:23.353Z,6.80
2019-03-19T12:12:23.322Z,4.70
2019-03-19T12:13:23.273Z,7.00
2019-03-19T12:14:23.229Z,7.20
2019-03-19T12:15:23.203Z,6.30
2019-03-19T12:16:23.152Z,5.70
2019-03-19T12:17:23.115Z,8.00
2019-03-19T12:18:23.075Z,5.20
2019-03-19T12:19:23.033Z,4.70
2019-03-19T12:20:22.993Z,4.60
2019-03-19T12:21:22.954Z,7.50
2019-03-19T12:22:22.912Z,8.60
2019-03-19T12:23:22.870Z,4.10
2019-03-19T12:24:22.835Z,3.90
2019-03-19T12:25:22.796Z,7.60
2019-03-19T12:26:22.751Z,8.90
2019-03-19T12:27:22.713Z,6.10
2019-03-19T12:28:22.673Z,6.10
2019-03-19T12:29:22.629Z,4.80
2019-03-19T12:30:25.801Z,6.10
2019-03-19T12:31:22.554Z,5.90
2019-03-19T12:32:22.529Z,4.60
2019-03-19T12:33:22.474Z,5.30
2019-03-19T12:34:22.431Z,5.70
2019-03-19T12:35:22.397Z,4.20
2019-03-19T12:36:22.353Z,5.20
2019-03-19T12:37:22.311Z,6.10
2019-03-19T12:38:22.279Z,5.60
2019-03-19T12:39:22.237Z,7.30
2019-03-19T12:40:22.195Z,6.50
2019-03-19T12:41:22.153Z,5.90
2019-03-19T12:42:22.130Z,6.20
2019-03-19T12:43:22.077Z,4.80
2019-03-19T12:44:22.038Z,3.80
2019-03-19T12:45:22.003Z,4.50
2019-03-19T12:46:21.956Z,5.60
2019-03-19T12:47:21.919Z,5.40
2019-03-19T12:48:21.878Z,4.70
2019-03-19T12:49:21.835Z,7.50
2019-03-19T12:50:21.802Z,8.40
2019-03-19T12:51:21.761Z,6.20
2019-03-19T12:52:21.723Z,5.30
2019-03-19T12:53:21.682Z,6.10
2019-03-19T12:54:21.638Z,8.20
2019-03-19T12:55:21.598Z,6.00
2019-03-19T12:56:21.561Z,7.30
2019-03-19T12:57:21.524Z,6.20
2019-03-19T12:58:21.478Z,6.50
2019-03-19T12:59:21.442Z,4.50
2019-03-19T13:00:29.318Z,4.60
2019-03-19T13:01:21.392Z,5.70
2019-03-19T13:02:21.325Z,5.60
2019-03-19T13:03:21.286Z,7.80
2019-03-19T13:04:21.245Z,5.60
2019-03-19T13:05:22.570Z,7.50
2019-03-19T13:06:21.163Z,7.00
2019-03-19T13:07:21.124Z,7.40
2019-03-19T13:08:21.084Z,5.60
2019-03-19T13:09:21.042Z,5.50
2019-03-19T13:10:21.010Z,4.30
2019-03-19T13:11:20.967Z,5.10
2019-03-19T13:12:20.927Z,5.20
2019-03-19T13:13:20.883Z,6.90
2019-03-19T13:14:20.851Z,5.10
2019-03-19T13:15:20.812Z,7.00
2019-03-19T13:16:20.771Z,5.30
2019-03-19T13:17:20.732Z,5.90
2019-03-19T13:18:20.686Z,5.40
2019-03-19T13:19:20.649Z,6.90
2019-03-19T13:20:20.608Z,6.00
2019-03-19T13:21:20.567Z,6.30
2019-03-19T13:22:20.535Z,5.90
2019-03-19T13:23:20.492Z,5.10
2019-03-19T13:24:20.453Z,8.90
2019-03-19T13:25:20.436Z,5.40
2019-03-19T13:26:20.370Z,6.30
2019-03-19T13:27:20.331Z,5.20
2019-03-19T13:28:20.300Z,6.30
2019-03-19T13:29:20.257Z,8.40
2019-03-19T13:30:20.211Z,6.00
2019-03-19T13:31:20.174Z,5.90